Terminal Aerodrome Forecast
Issued by NWS

Home | Current Version | Previous Version | Text Only | Print | Product List | Glossary On
Versions: 1 2 3 4 5 6 7 8 9 10 11 12 13 14 15 16
303
FTUS45 KRIW 280523
TAFCPR
TAF
KCPR 280523Z 2806/2906 36010KT 3SM -SN SCT006 OVC014
      TEMPO 2806/2810 2SM -SN BKN008
     FM281000 03012KT 2SM -SN OVC009
     FM290000 06011KT 4SM -SN OVC018=

USA.gov is the U.S. government's official web portal to all federal, state and local government web resources and services.